NCAR-RAP Real-Time Weather Data

Output produced by METARs form (06 May 2021  14:50 UTC)
found at http://weather.rap.ucar.edu/surface/
 
KAEX 061353Z 04004KT 10SM CLR 19/13 A3018 RMK AO2 SLP222 T01890133
KAEX 061253Z 00000KT 10SM CLR 17/13 A3016 RMK AO2 SLP216 T01670128
KAEX 061153Z 01003KT 10SM CLR 14/12 A3016 RMK AO2 SLP216 T01390122 10161 20133 53012
KAEX 061053Z 03004KT 10SM CLR 14/12 A3014 RMK AO2 SLP210 T01390117
KAEX 060953Z 01005KT 10SM CLR 14/13 A3014 RMK AO2 SLP209 T01440128
KAEX 060853Z 02003KT 10SM CLR 14/13 A3012 RMK AO2 SLP204 T01440128 53006
KAEX 060753Z 01003KT 10SM CLR 15/13 A3011 RMK AO2 SLP199 T01500133
KAEX 060653Z 00000KT 10SM CLR 15/13 A3011 RMK AO2 SLP199 T01500133
KAEX 060553Z 00000KT 10SM CLR 16/14 A3010 RMK AO2 SLP198 T01610139 10228 20161 402500144 52004
KAEX 060453Z 04003KT 10SM CLR 17/14 A3010 RMK AO2 SLP196 T01670139
KAEX 060353Z AUTO 04004KT 10SM CLR 17/14 A3010 RMK AO2 SLP196 T01720144
KAEX 060253Z AUTO 05003KT 10SM CLR 18/15 A3009 RMK AO2 SLP194 T01780150 53014
KAEX 060153Z AUTO 06003KT 10SM CLR 19/14 A3008 RMK AO2 SLP189 T01940144
KAEX 060053Z AUTO 07004KT 10SM CLR 21/14 A3006 RMK AO2 SLP183 T02110139
KAEX 052353Z AUTO 05007KT 10SM FEW039 23/14 A3005 RMK AO2 SLP180 T02280139 10250 20194 55004